sensor_id;sensor_type;location;lat;lon;timestamp;pressure;altitude;pressure_sealevel;temperature;humidity
52957;BME280;38819;42.692;23.342;2023-05-03T00:11:33;95604.63;;;14.69;38.34
52957;BME280;38819;42.692;23.342;2023-05-03T00:13:58;95605.00;;;14.76;38.45
52957;BME280;38819;42.692;23.342;2023-05-03T00:16:24;95617.22;;;14.88;38.40
52957;BME280;38819;42.692;23.342;2023-05-03T00:18:49;95602.22;;;14.90;38.29
52957;BME280;38819;42.692;23.342;2023-05-03T00:21:15;95601.53;;;14.85;38.58
52957;BME280;38819;42.692;23.342;2023-05-03T00:23:41;95611.97;;;14.91;38.41
52957;BME280;38819;42.692;23.342;2023-05-03T00:26:07;95611.66;;;14.93;38.32
52957;BME280;38819;42.692;23.342;2023-05-03T00:28:32;95618.34;;;14.87;38.33
52957;BME280;38819;42.692;23.342;2023-05-03T00:31:05;95621.13;;;14.95;38.45
52957;BME280;38819;42.692;23.342;2023-05-03T00:33:31;95600.66;;;14.98;38.38
52957;BME280;38819;42.692;23.342;2023-05-03T00:35:56;95611.22;;;14.99;38.41
52957;BME280;38819;42.692;23.342;2023-05-03T00:38:22;95612.16;;;14.95;38.54
52957;BME280;38819;42.692;23.342;2023-05-03T00:40:53;95607.88;;;15.03;38.01
52957;BME280;38819;42.692;23.342;2023-05-03T00:43:18;95608.69;;;15.03;38.25
52957;BME280;38819;42.692;23.342;2023-05-03T00:45:44;95608.84;;;15.07;38.16
52957;BME280;38819;42.692;23.342;2023-05-03T00:48:11;95614.38;;;15.15;38.21
52957;BME280;38819;42.692;23.342;2023-05-03T00:50:37;95599.47;;;15.13;38.16
52957;BME280;38819;42.692;23.342;2023-05-03T00:53:03;95613.75;;;15.18;37.99
52957;BME280;38819;42.692;23.342;2023-05-03T00:55:29;95608.41;;;15.13;37.93
52957;BME280;38819;42.692;23.342;2023-05-03T00:57:56;95617.72;;;15.12;38.13
52957;BME280;38819;42.692;23.342;2023-05-03T01:00:23;95610.44;;;14.99;38.22
52957;BME280;38819;42.692;23.342;2023-05-03T01:02:48;95604.69;;;15.00;38.44
52957;BME280;38819;42.692;23.342;2023-05-03T01:05:14;95610.28;;;15.04;38.63
52957;BME280;38819;42.692;23.342;2023-05-03T01:10:32;95606.91;;;14.98;38.64
52957;BME280;38819;42.692;23.342;2023-05-03T01:13:19;95609.25;;;14.91;38.43
52957;BME280;38819;42.692;23.342;2023-05-03T01:16:05;95601.56;;;14.93;38.49
52957;BME280;38819;42.692;23.342;2023-05-03T01:18:36;95608.16;;;14.92;38.56
52957;BME280;38819;42.692;23.342;2023-05-03T01:21:04;95600.13;;;14.87;38.44
52957;BME280;38819;42.692;23.342;2023-05-03T01:24:02;95590.16;;;14.82;38.93
52957;BME280;38819;42.692;23.342;2023-05-03T01:26:28;95594.19;;;14.85;38.81
52957;BME280;38819;42.692;23.342;2023-05-03T01:28:54;95594.81;;;14.59;38.84
52957;BME280;38819;42.692;23.342;2023-05-03T01:31:31;95597.09;;;14.66;39.29
52957;BME280;38819;42.692;23.342;2023-05-03T01:34:27;95600.25;;;14.59;39.27
52957;BME280;38819;42.692;23.342;2023-05-03T01:36:57;95589.38;;;14.59;39.33
52957;BME280;38819;42.692;23.342;2023-05-03T01:42:02;95583.63;;;14.61;39.23
52957;BME280;38819;42.692;23.342;2023-05-03T01:44:29;95579.19;;;14.65;39.23
52957;BME280;38819;42.692;23.342;2023-05-03T01:46:56;95568.41;;;14.60;39.18
52957;BME280;38819;42.692;23.342;2023-05-03T01:49:21;95565.00;;;14.54;39.58
52957;BME280;38819;42.692;23.342;2023-05-03T01:51:47;95560.13;;;14.42;39.45
52957;BME280;38819;42.692;23.342;2023-05-03T01:54:12;95561.44;;;14.45;39.67
52957;BME280;38819;42.692;23.342;2023-05-03T01:56:38;95545.84;;;14.37;39.70
52957;BME280;38819;42.692;23.342;2023-05-03T01:59:03;95541.97;;;14.29;39.91
52957;BME280;38819;42.692;23.342;2023-05-03T02:01:29;95536.34;;;14.25;40.20
52957;BME280;38819;42.692;23.342;2023-05-03T02:03:54;95522.56;;;14.22;40.17
52957;BME280;38819;42.692;23.342;2023-05-03T02:06:19;95534.91;;;14.28;40.27
52957;BME280;38819;42.692;23.342;2023-05-03T02:08:45;95524.56;;;14.30;40.30
52957;BME280;38819;42.692;23.342;2023-05-03T02:11:11;95520.22;;;14.29;40.20
52957;BME280;38819;42.692;23.342;2023-05-03T02:13:36;95528.91;;;14.40;40.04
52957;BME280;38819;42.692;23.342;2023-05-03T02:16:02;95529.25;;;14.38;40.31
52957;BME280;38819;42.692;23.342;2023-05-03T02:18:27;95527.44;;;14.34;40.39
52957;BME280;38819;42.692;23.342;2023-05-03T02:20:55;95531.97;;;14.38;40.23
52957;BME280;38819;42.692;23.342;2023-05-03T02:23:22;95526.31;;;14.35;40.40
52957;BME280;38819;42.692;23.342;2023-05-03T02:25:47;95528.06;;;14.31;40.66
52957;BME280;38819;42.692;23.342;2023-05-03T02:28:14;95533.00;;;14.29;40.62
52957;BME280;38819;42.692;23.342;2023-05-03T02:30:39;95542.38;;;14.22;40.67
52957;BME280;38819;42.692;23.342;2023-05-03T02:33:05;95542.56;;;14.26;40.79
52957;BME280;38819;42.692;23.342;2023-05-03T02:35:30;95526.22;;;14.17;40.72
52957;BME280;38819;42.692;23.342;2023-05-03T02:37:55;95524.97;;;14.23;40.87
52957;BME280;38819;42.692;23.342;2023-05-03T02:40:21;95533.25;;;14.18;40.86
52957;BME280;38819;42.692;23.342;2023-05-03T02:42:47;95542.44;;;14.08;40.83
52957;BME280;38819;42.692;23.342;2023-05-03T02:45:12;95548.06;;;14.12;41.08
52957;BME280;38819;42.692;23.342;2023-05-03T02:47:37;95545.16;;;14.08;41.16
52957;BME280;38819;42.692;23.342;2023-05-03T02:50:03;95544.97;;;14.05;41.25
52957;BME280;38819;42.692;23.342;2023-05-03T02:52:28;95539.53;;;14.05;41.14
52957;BME280;38819;42.692;23.342;2023-05-03T02:54:54;95536.69;;;14.10;40.97
52957;BME280;38819;42.692;23.342;2023-05-03T02:57:20;95534.59;;;14.07;41.03
52957;BME280;38819;42.692;23.342;2023-05-03T02:59:45;95539.13;;;13.98;41.21
52957;BME280;38819;42.692;23.342;2023-05-03T03:02:10;95542.56;;;14.03;40.92
52957;BME280;38819;42.692;23.342;2023-05-03T03:04:36;95539.63;;;14.00;41.33
52957;BME280;38819;42.692;23.342;2023-05-03T03:07:01;95550.19;;;14.01;41.18
52957;BME280;38819;42.692;23.342;2023-05-03T03:09:27;95553.13;;;14.05;41.19
52957;BME280;38819;42.692;23.342;2023-05-03T03:11:53;95551.56;;;14.13;41.25
52957;BME280;38819;42.692;23.342;2023-05-03T03:14:18;95551.38;;;14.09;41.41
52957;BME280;38819;42.692;23.342;2023-05-03T03:16:44;95553.50;;;14.12;41.18
52957;BME280;38819;42.692;23.342;2023-05-03T03:19:09;95565.94;;;14.13;41.34
52957;BME280;38819;42.692;23.342;2023-05-03T03:21:35;95569.59;;;14.08;41.73
52957;BME280;38819;42.692;23.342;2023-05-03T03:24:02;95557.41;;;14.06;41.79
52957;BME280;38819;42.692;23.342;2023-05-03T03:26:28;95559.72;;;14.13;41.81
52957;BME280;38819;42.692;23.342;2023-05-03T03:28:53;95559.94;;;14.02;41.92
52957;BME280;38819;42.692;23.342;2023-05-03T03:31:18;95566.88;;;14.08;41.98
52957;BME280;38819;42.692;23.342;2023-05-03T03:33:46;95561.94;;;14.11;41.83
52957;BME280;38819;42.692;23.342;2023-05-03T03:36:12;95578.53;;;14.09;41.89
52957;BME280;38819;42.692;23.342;2023-05-03T03:38:38;95579.34;;;14.09;42.06
52957;BME280;38819;42.692;23.342;2023-05-03T03:41:05;95578.97;;;14.02;42.26
52957;BME280;38819;42.692;23.342;2023-05-03T03:43:31;95589.41;;;14.09;42.29
52957;BME280;38819;42.692;23.342;2023-05-03T03:45:56;95581.88;;;14.06;42.46
52957;BME280;38819;42.692;23.342;2023-05-03T03:48:21;95589.91;;;14.11;42.78
52957;BME280;38819;42.692;23.342;2023-05-03T03:50:47;95590.09;;;14.15;42.81
52957;BME280;38819;42.692;23.342;2023-05-03T03:53:12;95583.84;;;14.14;42.71
52957;BME280;38819;42.692;23.342;2023-05-03T03:55:38;95600.75;;;14.11;42.13
52957;BME280;38819;42.692;23.342;2023-05-03T03:58:04;95597.94;;;14.16;42.14
52957;BME280;38819;42.692;23.342;2023-05-03T04:00:29;95607.69;;;14.17;42.58
52957;BME280;38819;42.692;23.342;2023-05-03T04:02:55;95608.31;;;14.14;42.31
52957;BME280;38819;42.692;23.342;2023-05-03T04:05:20;95605.66;;;14.23;42.12
52957;BME280;38819;42.692;23.342;2023-05-03T04:07:46;95604.25;;;14.25;42.09
52957;BME280;38819;42.692;23.342;2023-05-03T04:10:11;95616.09;;;14.30;42.23
52957;BME280;38819;42.692;23.342;2023-05-03T04:12:36;95606.50;;;14.23;42.11
52957;BME280;38819;42.692;23.342;2023-05-03T04:15:03;95613.69;;;14.28;42.08
52957;BME280;38819;42.692;23.342;2023-05-03T04:17:28;95610.91;;;14.19;42.16
52957;BME280;38819;42.692;23.342;2023-05-03T04:19:53;95610.41;;;14.17;42.24
52957;BME280;38819;42.692;23.342;2023-05-03T04:22:19;95614.22;;;14.16;42.18
52957;BME280;38819;42.692;23.342;2023-05-03T04:24:45;95615.72;;;14.22;42.19
52957;BME280;38819;42.692;23.342;2023-05-03T04:27:12;95624.69;;;14.23;42.02
52957;BME280;38819;42.692;23.342;2023-05-03T04:29:39;95623.69;;;14.19;42.11
52957;BME280;38819;42.692;23.342;2023-05-03T04:32:04;95638.16;;;14.28;42.10
52957;BME280;38819;42.692;23.342;2023-05-03T04:34:31;95638.78;;;14.25;42.53
52957;BME280;38819;42.692;23.342;2023-05-03T04:36:57;95636.66;;;14.22;42.89
52957;BME280;38819;42.692;23.342;2023-05-03T04:39:24;95648.16;;;14.19;43.46
52957;BME280;38819;42.692;23.342;2023-05-03T04:41:50;95654.69;;;14.18;44.37
52957;BME280;38819;42.692;23.342;2023-05-03T04:44:16;95653.69;;;14.14;45.36
52957;BME280;38819;42.692;23.342;2023-05-03T04:46:41;95658.53;;;14.17;46.06
52957;BME280;38819;42.692;23.342;2023-05-03T04:49:07;95672.59;;;14.19;45.27
52957;BME280;38819;42.692;23.342;2023-05-03T04:51:32;95676.72;;;14.16;45.59
52957;BME280;38819;42.692;23.342;2023-05-03T04:53:58;95674.59;;;14.13;46.91
52957;BME280;38819;42.692;23.342;2023-05-03T04:56:25;95689.19;;;14.17;47.56
52957;BME280;38819;42.692;23.342;2023-05-03T04:58:53;95682.97;;;14.17;46.87
52957;BME280;38819;42.692;23.342;2023-05-03T05:01:19;95690.50;;;14.06;48.05
52957;BME280;38819;42.692;23.342;2023-05-03T05:03:51;95697.88;;;13.92;46.41
52957;BME280;38819;42.692;23.342;2023-05-03T05:06:16;95698.56;;;13.97;46.64
52957;BME280;38819;42.692;23.342;2023-05-03T05:08:42;95699.84;;;14.00;46.90
52957;BME280;38819;42.692;23.342;2023-05-03T05:11:07;95700.47;;;13.97;47.55
52957;BME280;38819;42.692;23.342;2023-05-03T05:13:33;95712.53;;;13.90;48.20
52957;BME280;38819;42.692;23.342;2023-05-03T05:15:58;95703.59;;;13.90;49.30
52957;BME280;38819;42.692;23.342;2023-05-03T05:18:23;95709.22;;;13.94;50.09
52957;BME280;38819;42.692;23.342;2023-05-03T05:20:49;95719.16;;;13.84;50.09
52957;BME280;38819;42.692;23.342;2023-05-03T05:23:14;95720.59;;;13.82;51.32
52957;BME280;38819;42.692;23.342;2023-05-03T05:25:40;95711.22;;;13.88;51.01
52957;BME280;38819;42.692;23.342;2023-05-03T05:28:05;95726.13;;;13.90;49.75
52957;BME280;38819;42.692;23.342;2023-05-03T05:30:31;95721.38;;;13.82;51.32
52957;BME280;38819;42.692;23.342;2023-05-03T05:32:57;95718.88;;;13.86;51.28
52957;BME280;38819;42.692;23.342;2023-05-03T05:35:22;95721.09;;;13.84;51.41
52957;BME280;38819;42.692;23.342;2023-05-03T05:37:47;95714.25;;;13.86;51.15
52957;BME280;38819;42.692;23.342;2023-05-03T05:40:13;95716.56;;;13.93;51.17
52957;BME280;38819;42.692;23.342;2023-05-03T05:42:39;95720.50;;;13.87;49.70
52957;BME280;38819;42.692;23.342;2023-05-03T05:45:05;95712.44;;;13.96;49.54
52957;BME280;38819;42.692;23.342;2023-05-03T05:47:31;95710.41;;;14.01;49.68
52957;BME280;38819;42.692;23.342;2023-05-03T05:49:57;95709.91;;;13.99;49.16
52957;BME280;38819;42.692;23.342;2023-05-03T05:52:22;95705.91;;;14.11;49.42
52957;BME280;38819;42.692;23.342;2023-05-03T05:54:48;95701.69;;;14.18;50.27
52957;BME280;38819;42.692;23.342;2023-05-03T05:57:13;95698.56;;;14.25;49.91
52957;BME280;38819;42.692;23.342;2023-05-03T05:59:38;95696.63;;;14.25;49.69
52957;BME280;38819;42.692;23.342;2023-05-03T06:02:14;95713.81;;;14.35;49.36
52957;BME280;38819;42.692;23.342;2023-05-03T06:04:44;95691.59;;;14.33;49.35
52957;BME280;38819;42.692;23.342;2023-05-03T06:07:10;95700.53;;;14.33;49.53
52957;BME280;38819;42.692;23.342;2023-05-03T06:09:36;95696.72;;;14.34;49.63
52957;BME280;38819;42.692;23.342;2023-05-03T06:12:01;95697.81;;;14.33;49.37
52957;BME280;38819;42.692;23.342;2023-05-03T06:14:27;95696.22;;;14.32;50.87
52957;BME280;38819;42.692;23.342;2023-05-03T06:16:52;95695.19;;;14.42;50.69
52957;BME280;38819;42.692;23.342;2023-05-03T06:19:18;95696.09;;;14.37;51.39
52957;BME280;38819;42.692;23.342;2023-05-03T06:21:43;95700.63;;;14.42;51.08
52957;BME280;38819;42.692;23.342;2023-05-03T06:24:08;95700.34;;;14.43;51.70
52957;BME280;38819;42.692;23.342;2023-05-03T06:26:34;95697.81;;;14.47;50.55
52957;BME280;38819;42.692;23.342;2023-05-03T06:28:59;95708.50;;;14.43;50.66
52957;BME280;38819;42.692;23.342;2023-05-03T06:31:25;95699.31;;;14.39;49.75
52957;BME280;38819;42.692;23.342;2023-05-03T06:33:50;95701.34;;;14.34;49.79
52957;BME280;38819;42.692;23.342;2023-05-03T06:36:15;95701.06;;;14.35;50.35
52957;BME280;38819;42.692;23.342;2023-05-03T06:38:41;95694.06;;;14.43;49.70
52957;BME280;38819;42.692;23.342;2023-05-03T06:41:06;95695.69;;;14.44;50.60
52957;BME280;38819;42.692;23.342;2023-05-03T06:43:32;95692.44;;;14.56;50.73
52957;BME280;38819;42.692;23.342;2023-05-03T06:45:57;95684.09;;;14.52;50.47
52957;BME280;38819;42.692;23.342;2023-05-03T06:48:23;95681.78;;;14.59;50.16
52957;BME280;38819;42.692;23.342;2023-05-03T06:50:48;95679.56;;;14.61;48.83
52957;BME280;38819;42.692;23.342;2023-05-03T06:53:14;95669.91;;;14.55;48.19
52957;BME280;38819;42.692;23.342;2023-05-03T06:55:42;95662.75;;;14.59;47.63
52957;BME280;38819;42.692;23.342;2023-05-03T06:58:08;95663.13;;;14.67;48.29
52957;BME280;38819;42.692;23.342;2023-05-03T07:00:36;95654.78;;;14.63;48.20
52957;BME280;38819;42.692;23.342;2023-05-03T07:03:03;95653.56;;;14.69;48.22
52957;BME280;38819;42.692;23.342;2023-05-03T07:05:29;95656.72;;;14.62;47.55
52957;BME280;38819;42.692;23.342;2023-05-03T07:07:54;95644.84;;;14.58;47.55
52957;BME280;38819;42.692;23.342;2023-05-03T07:10:19;95654.88;;;14.72;47.44
52957;BME280;38819;42.692;23.342;2023-05-03T07:12:45;95645.09;;;14.71;47.07
52957;BME280;38819;42.692;23.342;2023-05-03T07:15:10;95650.53;;;14.71;47.20
52957;BME280;38819;42.692;23.342;2023-05-03T07:17:36;95664.38;;;14.60;47.73
52957;BME280;38819;42.692;23.342;2023-05-03T07:20:01;95667.69;;;14.57;47.94
52957;BME280;38819;42.692;23.342;2023-05-03T07:22:27;95657.56;;;14.35;47.91
52957;BME280;38819;42.692;23.342;2023-05-03T07:24:53;95661.84;;;14.14;48.50
52957;BME280;38819;42.692;23.342;2023-05-03T07:27:24;95648.38;;;14.08;49.04
52957;BME280;38819;42.692;23.342;2023-05-03T07:29:49;95656.50;;;14.08;49.48
52957;BME280;38819;42.692;23.342;2023-05-03T07:32:14;95659.53;;;13.93;49.77
52957;BME280;38819;42.692;23.342;2023-05-03T07:34:40;95666.88;;;13.93;49.96
52957;BME280;38819;42.692;23.342;2023-05-03T07:37:06;95664.25;;;13.87;50.24
52957;BME280;38819;42.692;23.342;2023-05-03T07:39:31;95666.28;;;13.96;50.21
52957;BME280;38819;42.692;23.342;2023-05-03T07:41:57;95651.69;;;13.78;50.93
52957;BME280;38819;42.692;23.342;2023-05-03T07:44:22;95649.88;;;13.73;51.60
52957;BME280;38819;42.692;23.342;2023-05-03T07:46:47;95647.06;;;13.64;51.22
52957;BME280;38819;42.692;23.342;2023-05-03T07:49:13;95648.00;;;13.74;51.23
52957;BME280;38819;42.692;23.342;2023-05-03T07:51:38;95654.19;;;13.88;51.23
52957;BME280;38819;42.692;23.342;2023-05-03T07:54:04;95650.19;;;13.85;51.19
52957;BME280;38819;42.692;23.342;2023-05-03T07:56:30;95664.88;;;13.84;51.42
52957;BME280;38819;42.692;23.342;2023-05-03T07:58:55;95670.91;;;13.95;51.48
52957;BME280;38819;42.692;23.342;2023-05-03T08:01:21;95663.44;;;13.73;51.79
52957;BME280;38819;42.692;23.342;2023-05-03T08:03:47;95660.88;;;13.82;51.71
52957;BME280;38819;42.692;23.342;2023-05-03T08:06:16;95665.59;;;13.90;52.35
52957;BME280;38819;42.692;23.342;2023-05-03T08:08:41;95680.06;;;13.99;51.55
52957;BME280;38819;42.692;23.342;2023-05-03T08:11:07;95668.59;;;13.88;52.08
52957;BME280;38819;42.692;23.342;2023-05-03T08:13:33;95662.47;;;13.97;52.46
52957;BME280;38819;42.692;23.342;2023-05-03T08:15:58;95664.25;;;14.01;51.64
52957;BME280;38819;42.692;23.342;2023-05-03T08:18:24;95668.59;;;14.02;52.15
52957;BME280;38819;42.692;23.342;2023-05-03T08:20:50;95663.13;;;14.16;51.87
52957;BME280;38819;42.692;23.342;2023-05-03T08:23:15;95659.19;;;14.22;52.01
52957;BME280;38819;42.692;23.342;2023-05-03T08:25:42;95656.78;;;14.21;52.38
52957;BME280;38819;42.692;23.342;2023-05-03T08:28:09;95667.44;;;14.31;52.26
52957;BME280;38819;42.692;23.342;2023-05-03T08:30:35;95658.53;;;14.17;52.26
52957;BME280;38819;42.692;23.342;2023-05-03T08:33:00;95669.66;;;14.29;51.93
52957;BME280;38819;42.692;23.342;2023-05-03T08:35:26;95671.03;;;14.40;51.84
52957;BME280;38819;42.692;23.342;2023-05-03T08:37:52;95675.66;;;14.54;51.90
52957;BME280;38819;42.692;23.342;2023-05-03T08:40:20;95683.84;;;14.76;51.70
52957;BME280;38819;42.692;23.342;2023-05-03T08:42:46;95670.09;;;14.95;51.05
52957;BME280;38819;42.692;23.342;2023-05-03T08:45:14;95655.78;;;14.90;50.95
52957;BME280;38819;42.692;23.342;2023-05-03T08:47:41;95654.31;;;15.06;50.08
52957;BME280;38819;42.692;23.342;2023-05-03T08:50:13;95658.22;;;15.14;50.71
52957;BME280;38819;42.692;23.342;2023-05-03T08:52:42;95664.19;;;15.25;50.42
52957;BME280;38819;42.692;23.342;2023-05-03T08:55:09;95661.06;;;15.40;50.38
52957;BME280;38819;42.692;23.342;2023-05-03T08:57:35;95668.34;;;15.53;50.12
52957;BME280;38819;42.692;23.342;2023-05-03T09:00:01;95670.97;;;15.67;49.49
52957;BME280;38819;42.692;23.342;2023-05-03T09:02:30;95675.88;;;15.56;49.40
52957;BME280;38819;42.692;23.342;2023-05-03T09:04:59;95673.03;;;15.62;49.03
52957;BME280;38819;42.692;23.342;2023-05-03T09:07:25;95671.94;;;15.71;49.45
52957;BME280;38819;42.692;23.342;2023-05-03T09:09:50;95668.44;;;15.71;49.82
52957;BME280;38819;42.692;23.342;2023-05-03T09:12:34;95672.84;;;15.58;49.82
52957;BME280;38819;42.692;23.342;2023-05-03T09:15:00;95668.44;;;15.40;50.38
52957;BME280;38819;42.692;23.342;2023-05-03T09:17:27;95659.84;;;15.55;50.43
52957;BME280;38819;42.692;23.342;2023-05-03T09:19:54;95655.06;;;15.52;50.61
52957;BME280;38819;42.692;23.342;2023-05-03T09:22:30;95641.66;;;15.64;50.08
52957;BME280;38819;42.692;23.342;2023-05-03T09:24:58;95643.81;;;15.53;50.50
52957;BME280;38819;42.692;23.342;2023-05-03T09:27:24;95639.22;;;15.54;50.79
52957;BME280;38819;42.692;23.342;2023-05-03T09:29:51;95635.00;;;15.79;50.38
52957;BME280;38819;42.692;23.342;2023-05-03T09:32:17;95636.97;;;15.96;49.57
52957;BME280;38819;42.692;23.342;2023-05-03T09:34:43;95635.81;;;15.88;49.89
52957;BME280;38819;42.692;23.342;2023-05-03T09:37:10;95632.13;;;15.76;50.34
52957;BME280;38819;42.692;23.342;2023-05-03T09:39:35;95617.91;;;15.56;50.41
52957;BME280;38819;42.692;23.342;2023-05-03T09:42:11;95612.50;;;15.73;50.56
52957;BME280;38819;42.692;23.342;2023-05-03T09:44:49;95605.97;;;15.74;50.79
52957;BME280;38819;42.692;23.342;2023-05-03T09:47:18;95597.78;;;15.74;50.03
52957;BME280;38819;42.692;23.342;2023-05-03T09:49:44;95601.72;;;16.00;49.73
52957;BME280;38819;42.692;23.342;2023-05-03T09:52:10;95601.91;;;16.12;49.61
52957;BME280;38819;42.692;23.342;2023-05-03T09:54:36;95609.63;;;16.36;50.00
52957;BME280;38819;42.692;23.342;2023-05-03T09:57:03;95603.38;;;16.36;48.20
52957;BME280;38819;42.692;23.342;2023-05-03T09:59:30;95600.00;;;16.30;48.46
52957;BME280;38819;42.692;23.342;2023-05-03T10:01:56;95610.59;;;16.32;49.52
52957;BME280;38819;42.692;23.342;2023-05-03T10:04:27;95601.47;;;16.27;49.87
52957;BME280;38819;42.692;23.342;2023-05-03T10:06:57;95594.72;;;16.25;48.96
52957;BME280;38819;42.692;23.342;2023-05-03T10:09:43;95594.25;;;16.49;49.50
52957;BME280;38819;42.692;23.342;2023-05-03T10:12:10;95589.88;;;16.65;49.29
52957;BME280;38819;42.692;23.342;2023-05-03T10:14:40;95596.63;;;16.68;48.62
52957;BME280;38819;42.692;23.342;2023-05-03T10:17:20;95591.19;;;16.68;48.78
52957;BME280;38819;42.692;23.342;2023-05-03T10:19:54;95597.44;;;16.68;48.65
52957;BME280;38819;42.692;23.342;2023-05-03T10:22:21;95586.19;;;16.70;49.24
52957;BME280;38819;42.692;23.342;2023-05-03T10:30:27;95571.16;;;16.64;49.61
52957;BME280;38819;42.692;23.342;2023-05-03T10:32:54;95554.59;;;16.60;49.87
52957;BME280;38819;42.692;23.342;2023-05-03T10:35:19;95553.50;;;16.53;48.97
52957;BME280;38819;42.692;23.342;2023-05-03T10:37:47;95547.25;;;16.61;49.90
52957;BME280;38819;42.692;23.342;2023-05-03T10:40:16;95544.31;;;16.75;49.45
52957;BME280;38819;42.692;23.342;2023-05-03T10:43:03;95553.00;;;16.94;50.19
52957;BME280;38819;42.692;23.342;2023-05-03T10:45:28;95550.38;;;17.07;48.41
52957;BME280;38819;42.692;23.342;2023-05-03T10:50:35;95544.69;;;17.20;49.05
52957;BME280;38819;42.692;23.342;2023-05-03T10:53:01;95548.50;;;17.37;48.71
52957;BME280;38819;42.692;23.342;2023-05-03T10:55:26;95541.63;;;17.31;47.65
52957;BME280;38819;42.692;23.342;2023-05-03T10:57:57;95555.94;;;17.19;48.08
52957;BME280;38819;42.692;23.342;2023-05-03T11:05:34;95548.88;;;17.27;48.03
52957;BME280;38819;42.692;23.342;2023-05-03T11:08:17;95548.44;;;17.16;48.42
52957;BME280;38819;42.692;23.342;2023-05-03T11:10:44;95545.25;;;17.05;49.05
52957;BME280;38819;42.692;23.342;2023-05-03T11:13:10;95545.25;;;17.05;49.29
52957;BME280;38819;42.692;23.342;2023-05-03T11:15:36;95520.50;;;17.10;49.15
52957;BME280;38819;42.692;23.342;2023-05-03T11:18:02;95519.38;;;17.11;49.22
52957;BME280;38819;42.692;23.342;2023-05-03T11:20:28;95519.19;;;17.16;49.64
52957;BME280;38819;42.692;23.342;2023-05-03T11:22:55;95530.25;;;17.20;49.49
52957;BME280;38819;42.692;23.342;2023-05-03T11:25:20;95535.41;;;17.21;49.53
52957;BME280;38819;42.692;23.342;2023-05-03T11:27:45;95522.22;;;17.23;49.85
52957;BME280;38819;42.692;23.342;2023-05-03T11:30:12;95518.03;;;17.26;49.67
52957;BME280;38819;42.692;23.342;2023-05-03T11:32:39;95517.25;;;17.17;49.39
52957;BME280;38819;42.692;23.342;2023-05-03T11:35:05;95517.63;;;17.07;49.75
52957;BME280;38819;42.692;23.342;2023-05-03T11:37:32;95522.16;;;16.94;50.41
52957;BME280;38819;42.692;23.342;2023-05-03T11:39:59;95526.78;;;17.02;50.48
52957;BME280;38819;42.692;23.342;2023-05-03T11:42:24;95529.00;;;17.09;50.02
52957;BME280;38819;42.692;23.342;2023-05-03T11:44:54;95529.81;;;17.18;50.18
52957;BME280;38819;42.692;23.342;2023-05-03T11:47:20;95521.56;;;17.27;49.99
52957;BME280;38819;42.692;23.342;2023-05-03T11:49:56;95508.84;;;17.39;49.79
52957;BME280;38819;42.692;23.342;2023-05-03T11:52:25;95502.19;;;17.49;49.64
52957;BME280;38819;42.692;23.342;2023-05-03T11:54:55;95491.59;;;17.48;49.45
52957;BME280;38819;42.692;23.342;2023-05-03T11:57:21;95497.66;;;17.53;49.33
52957;BME280;38819;42.692;23.342;2023-05-03T11:59:46;95505.47;;;17.34;49.81
52957;BME280;38819;42.692;23.342;2023-05-03T12:02:14;95505.59;;;17.46;49.91
52957;BME280;38819;42.692;23.342;2023-05-03T12:04:41;95506.69;;;17.45;49.95
52957;BME280;38819;42.692;23.342;2023-05-03T12:07:09;95502.38;;;17.44;49.65
52957;BME280;38819;42.692;23.342;2023-05-03T12:09:35;95494.78;;;17.50;49.79
52957;BME280;38819;42.692;23.342;2023-05-03T12:12:01;95492.41;;;17.48;49.68
52957;BME280;38819;42.692;23.342;2023-05-03T12:14:28;95499.66;;;17.44;49.60
52957;BME280;38819;42.692;23.342;2023-05-03T12:16:54;95499.50;;;17.40;49.49
52957;BME280;38819;42.692;23.342;2023-05-03T12:19:27;95498.88;;;17.35;49.97
52957;BME280;38819;42.692;23.342;2023-05-03T12:21:53;95502.78;;;17.25;50.08
52957;BME280;38819;42.692;23.342;2023-05-03T12:24:19;95498.94;;;17.26;50.14
52957;BME280;38819;42.692;23.342;2023-05-03T12:26:47;95494.13;;;17.23;50.15
52957;BME280;38819;42.692;23.342;2023-05-03T12:29:13;95497.97;;;17.22;49.95
52957;BME280;38819;42.692;23.342;2023-05-03T12:31:39;95501.59;;;17.05;50.34
52957;BME280;38819;42.692;23.342;2023-05-03T12:34:04;95502.88;;;16.99;50.76
52957;BME280;38819;42.692;23.342;2023-05-03T12:36:30;95498.44;;;16.94;50.40
52957;BME280;38819;42.692;23.342;2023-05-03T12:39:00;95504.22;;;16.84;51.43
52957;BME280;38819;42.692;23.342;2023-05-03T12:41:26;95495.09;;;16.71;51.95
52957;BME280;38819;42.692;23.342;2023-05-03T12:43:54;95495.91;;;16.63;52.18
52957;BME280;38819;42.692;23.342;2023-05-03T12:46:21;95486.44;;;16.69;52.09
52957;BME280;38819;42.692;23.342;2023-05-03T12:48:48;95487.03;;;16.83;52.00
52957;BME280;38819;42.692;23.342;2023-05-03T12:51:13;95487.84;;;16.93;51.73
52957;BME280;38819;42.692;23.342;2023-05-03T12:53:39;95489.75;;;16.83;51.48
52957;BME280;38819;42.692;23.342;2023-05-03T12:56:05;95488.78;;;16.97;51.09
52957;BME280;38819;42.692;23.342;2023-05-03T12:58:31;95471.94;;;16.95;52.04
52957;BME280;38819;42.692;23.342;2023-05-03T13:00:56;95483.03;;;16.81;52.94
52957;BME280;38819;42.692;23.342;2023-05-03T13:03:22;95486.91;;;16.71;54.21
52957;BME280;38819;42.692;23.342;2023-05-03T13:05:48;95481.63;;;16.66;55.36
52957;BME280;38819;42.692;23.342;2023-05-03T13:08:14;95481.31;;;16.59;55.63
52957;BME280;38819;42.692;23.342;2023-05-03T13:10:39;95478.94;;;16.40;55.72
52957;BME280;38819;42.692;23.342;2023-05-03T13:13:05;95489.47;;;16.59;55.89
52957;BME280;38819;42.692;23.342;2023-05-03T13:15:32;95494.44;;;16.65;56.66
52957;BME280;38819;42.692;23.342;2023-05-03T13:17:59;95481.94;;;16.64;56.21